Time;durP1;ratioP1;P1;durP2;ratioP2;P2;SDS_P1;SDS_P2;PMS_P1;PMS_P2;Temp;Humidity;BMP_temperature;BMP_pressure;BME280_temperature;BME280_humidity;BME280_pressure;Samples;Min_cycle;Max_cycle;Signal;HPM_P1;HPM_P2
2023/07/27 00:02:23;;;;;;;24.25;9.40;;;13.70;99.90;;;;;;6159677;23;20058;-77
2023/07/27 00:04:49;;;;;;;20.50;10.20;;;13.70;99.90;;;;;;6159679;23;20020;-77
2023/07/27 00:07:14;;;;;;;21.98;9.63;;;13.70;99.90;;;;;;6159641;23;20029;-77
2023/07/27 00:09:40;;;;;;;18.45;9.18;;;13.80;99.90;;;;;;6185892;23;20092;-77
2023/07/27 00:12:06;;;;;;;16.77;8.25;;;13.80;99.90;;;;;;6159685;23;20092;-77
2023/07/27 00:14:32;;;;;;;19.60;9.48;;;13.80;99.90;;;;;;6159631;23;20025;-77
2023/07/27 00:16:57;;;;;;;21.35;9.20;;;13.70;99.90;;;;;;6159586;23;20017;-77
2023/07/27 00:19:23;;;;;;;21.55;9.18;;;13.80;99.90;;;;;;6186093;23;20095;-77
2023/07/27 00:21:48;;;;;;;24.30;10.30;;;13.80;99.90;;;;;;6159639;23;20027;-77
2023/07/27 00:24:14;;;;;;;21.90;10.27;;;13.80;99.90;;;;;;6186243;23;20020;-77
2023/07/27 00:26:41;;;;;;;23.65;10.02;;;13.80;99.90;;;;;;6186283;23;20013;-77
2023/07/27 00:29:07;;;;;;;23.65;10.23;;;13.70;99.90;;;;;;6159476;23;20019;-77
2023/07/27 00:31:33;;;;;;;23.17;9.63;;;13.70;99.90;;;;;;6159566;23;20092;-77
2023/07/27 00:33:58;;;;;;;20.63;10.15;;;13.60;99.90;;;;;;6159595;23;20025;-77
2023/07/27 00:36:24;;;;;;;19.60;10.18;;;13.70;99.90;;;;;;6186226;23;20013;-77
2023/07/27 00:38:49;;;;;;;22.60;10.45;;;13.60;99.90;;;;;;6184260;23;20023;-77
2023/07/27 00:41:15;;;;;;;26.17;10.63;;;13.60;99.90;;;;;;6159302;23;20020;-77
2023/07/27 00:43:42;;;;;;;27.35;10.98;;;13.60;99.90;;;;;;6159525;23;20060;-77
2023/07/27 00:46:07;;;;;;;21.75;10.00;;;13.60;99.90;;;;;;6159369;23;20024;-77
2023/07/27 00:48:34;;;;;;;21.13;11.00;;;13.60;99.90;;;;;;6159444;23;20095;-77
2023/07/27 00:51:00;;;;;;;22.08;10.68;;;13.60;99.90;;;;;;6159417;23;20096;-77
2023/07/27 00:53:26;;;;;;;27.15;10.98;;;13.60;99.90;;;;;;6159777;23;20077;-77
2023/07/27 00:55:51;;;;;;;22.83;10.38;;;13.60;99.90;;;;;;6161375;23;20103;-77
2023/07/27 00:58:18;;;;;;;22.92;10.10;;;13.60;99.90;;;;;;6187582;23;20083;-77
2023/07/27 01:00:43;;;;;;;23.67;11.02;;;13.60;99.90;;;;;;6161303;23;20019;-77
2023/07/27 01:03:09;;;;;;;21.00;10.45;;;13.60;99.90;;;;;;6161192;23;20126;-77
2023/07/27 01:05:36;;;;;;;23.30;10.98;;;13.50;99.90;;;;;;6161201;23;20060;-77
2023/07/27 01:08:02;;;;;;;27.80;11.73;;;13.50;99.90;;;;;;6161135;23;20369;-77
2023/07/27 01:10:41;;;;;;;21.60;9.90;;;13.50;99.90;;;;;;6187832;23;20041;-77
2023/07/27 01:13:49;;;;;;;24.05;11.02;;;13.50;99.90;;;;;;6161189;23;20341;-77
2023/07/27 01:16:21;;;;;;;29.90;10.30;;;13.50;99.90;;;;;;6160385;23;20052;-77
2023/07/27 01:18:57;;;;;;;24.60;10.23;;;13.40;99.90;;;;;;6187481;23;20460;-77
2023/07/27 01:21:42;;;;;;;24.25;11.27;;;13.50;99.90;;;;;;6187562;23;20155;-78
2023/07/27 01:24:14;;;;;;;23.15;10.98;;;13.40;99.90;;;;;;6187279;23;20452;-77
2023/07/27 01:27:09;;;;;;;28.15;11.27;;;13.40;99.90;;;;;;6187435;23;20056;-77
2023/07/27 01:30:19;;;;;;;24.42;11.18;;;13.40;99.90;;;;;;6161057;23;20021;-77
2023/07/27 01:32:54;;;;;;;26.55;10.95;;;13.40;99.90;;;;;;6148066;23;20028;-77
2023/07/27 01:35:24;;;;;;;22.58;10.13;;;13.40;99.90;;;;;;6160960;23;20017;-77
2023/07/27 01:37:52;;;;;;;23.35;10.85;;;13.40;99.90;;;;;;6187096;23;20368;-77
2023/07/27 01:40:20;;;;;;;21.73;9.85;;;13.40;99.90;;;;;;6160665;23;20021;-76
2023/07/27 01:42:47;;;;;;;22.92;9.35;;;13.40;99.90;;;;;;6161303;23;20349;-77
2023/07/27 01:45:14;;;;;;;21.15;10.30;;;13.40;99.90;;;;;;6160846;23;20023;-77
2023/07/27 01:47:43;;;;;;;26.83;10.85;;;13.40;99.90;;;;;;6161194;23;20430;-76
2023/07/27 01:50:11;;;;;;;24.67;10.70;;;13.40;99.90;;;;;;6160880;23;20029;-76
2023/07/27 01:52:37;;;;;;;21.73;10.57;;;13.40;99.90;;;;;;6160710;23;20327;-77
2023/07/27 01:55:05;;;;;;;24.10;10.85;;;13.40;99.90;;;;;;6160711;23;20099;-77
2023/07/27 01:57:37;;;;;;;26.80;10.43;;;13.40;99.90;;;;;;6187330;23;20092;-77
2023/07/27 02:00:05;;;;;;;20.55;10.07;;;13.40;99.90;;;;;;6160718;23;20515;-77
2023/07/27 02:02:31;;;;;;;21.83;10.45;;;13.30;99.90;;;;;;6187442;23;20016;-77
2023/07/27 02:04:59;;;;;;;24.50;10.63;;;13.30;99.90;;;;;;6187203;23;20012;-77
2023/07/27 02:07:25;;;;;;;24.15;10.23;;;13.30;99.90;;;;;;6160581;23;20096;-77
2023/07/27 02:09:51;;;;;;;24.08;10.30;;;13.30;99.90;;;;;;6160709;23;20110;-77
2023/07/27 02:12:23;;;;;;;28.83;11.57;;;13.30;99.90;;;;;;6187077;23;20021;-77
2023/07/27 02:15:02;;;;;;;27.02;10.68;;;13.20;99.90;;;;;;6187336;23;20009;-77
2023/07/27 02:17:51;;;;;;;22.35;11.65;;;13.20;99.90;;;;;;6187202;23;20055;-77
2023/07/27 02:20:20;;;;;;;32.83;10.65;;;13.20;99.90;;;;;;6187475;23;20040;-77
2023/07/27 02:22:47;;;;;;;22.45;9.80;;;13.20;99.90;;;;;;6160498;23;20048;-77
2023/07/27 02:25:13;;;;;;;23.92;11.20;;;13.20;99.90;;;;;;6160570;23;20111;-77
2023/07/27 02:27:39;;;;;;;22.55;11.20;;;13.20;99.90;;;;;;6160569;23;20017;-77
2023/07/27 02:30:05;;;;;;;24.35;11.32;;;13.20;99.90;;;;;;6160938;23;20013;-77
2023/07/27 02:32:31;;;;;;;23.58;11.23;;;13.10;99.90;;;;;;6160507;23;20020;-77
2023/07/27 02:34:59;;;;;;;27.60;11.95;;;13.20;99.90;;;;;;6160561;23;20455;-77
2023/07/27 02:37:25;;;;;;;25.50;11.43;;;13.10;99.90;;;;;;6186621;23;20449;-77
2023/07/27 02:39:51;;;;;;;22.67;11.15;;;13.10;99.90;;;;;;6160150;23;20013;-77
2023/07/27 02:42:17;;;;;;;29.17;11.40;;;13.10;99.90;;;;;;6160317;23;20075;-77
2023/07/27 02:44:42;;;;;;;30.35;12.25;;;13.00;99.90;;;;;;6186987;23;20012;-77
2023/07/27 02:47:08;;;;;;;25.98;11.00;;;13.10;99.90;;;;;;6160306;23;20020;-77
2023/07/27 02:49:36;;;;;;;24.48;11.57;;;13.10;99.90;;;;;;6160237;23;20021;-77
2023/07/27 02:52:02;;;;;;;25.23;11.55;;;13.00;99.90;;;;;;6160252;23;20068;-77
2023/07/27 02:54:27;;;;;;;25.35;11.73;;;13.00;99.90;;;;;;6160168;23;20033;-76
2023/07/27 02:56:56;;;;;;;23.48;11.20;;;13.00;99.90;;;;;;6160510;23;20017;-77
2023/07/27 02:59:21;;;;;;;27.65;12.40;;;13.00;99.90;;;;;;6160157;23;20024;-77
2023/07/27 03:01:47;;;;;;;24.15;11.18;;;13.10;99.90;;;;;;6160264;23;20013;-77
2023/07/27 03:04:12;;;;;;;24.65;11.20;;;13.10;99.90;;;;;;6187004;23;20125;-77
2023/07/27 03:06:39;;;;;;;25.00;12.27;;;13.10;99.90;;;;;;6184862;23;20021;-77
2023/07/27 03:09:05;;;;;;;25.95;11.82;;;13.10;99.90;;;;;;6160088;23;20464;-77
2023/07/27 03:11:31;;;;;;;23.50;11.65;;;13.10;99.90;;;;;;6159980;23;20021;-77
2023/07/27 03:13:59;;;;;;;23.38;12.02;;;13.10;99.90;;;;;;6159957;23;20021;-77
2023/07/27 03:16:24;;;;;;;26.77;12.05;;;13.10;99.90;;;;;;6159790;23;20341;-77
2023/07/27 03:18:50;;;;;;;30.65;12.18;;;13.10;99.90;;;;;;6159851;23;20021;-77
2023/07/27 03:21:15;;;;;;;28.58;12.60;;;13.20;99.90;;;;;;6184778;23;20521;-77
2023/07/27 03:23:41;;;;;;;27.23;11.85;;;13.10;99.90;;;;;;6159982;23;20044;-77
2023/07/27 03:26:13;;;;;;;25.55;11.70;;;13.10;99.90;;;;;;6159990;23;20096;-77
2023/07/27 03:28:39;;;;;;;24.67;11.23;;;13.20;99.90;;;;;;6159872;23;20024;-77
2023/07/27 03:31:34;;;;;;;28.85;12.40;;;13.20;99.90;;;;;;6186284;23;20036;-77
2023/07/27 03:33:59;;;;;;;25.30;12.07;;;13.20;99.90;;;;;;6134883;23;20068;-77
2023/07/27 03:36:25;;;;;;;29.02;12.27;;;13.20;99.90;;;;;;6184677;23;20013;-77
2023/07/27 03:38:57;;;;;;;24.25;11.70;;;13.20;99.90;;;;;;6159735;23;20152;-77
2023/07/27 03:41:23;;;;;;;29.45;12.07;;;13.10;99.90;;;;;;6159125;23;20020;-76
2023/07/27 03:43:48;;;;;;;24.02;11.23;;;13.10;99.90;;;;;;6159141;23;20029;-77
2023/07/27 03:46:14;;;;;;;29.45;12.13;;;13.20;99.90;;;;;;6186318;23;20049;-77
2023/07/27 03:48:39;;;;;;;24.67;10.77;;;13.20;99.90;;;;;;6159706;23;20021;-77
2023/07/27 03:51:05;;;;;;;27.90;11.85;;;13.20;99.90;;;;;;6159691;23;20045;-77
2023/07/27 03:53:31;;;;;;;24.17;11.02;;;13.10;99.90;;;;;;6159612;23;20024;-77
2023/07/27 03:55:56;;;;;;;24.80;11.55;;;13.20;99.90;;;;;;6159599;23;20013;-77
2023/07/27 03:58:22;;;;;;;24.60;11.43;;;13.20;99.90;;;;;;6186049;23;20114;-77
2023/07/27 04:00:48;;;;;;;24.98;12.57;;;13.20;99.90;;;;;;6159612;23;20457;-77
2023/07/27 04:03:14;;;;;;;28.67;11.40;;;13.30;99.90;;;;;;6159555;23;20017;-76
2023/07/27 04:05:39;;;;;;;29.73;12.88;;;13.30;99.90;;;;;;6159533;23;20055;-77
2023/07/27 04:08:05;;;;;;;24.17;12.48;;;13.40;99.90;;;;;;6159596;23;20021;-77
2023/07/27 04:10:31;;;;;;;29.25;12.70;;;13.50;99.90;;;;;;6159490;23;20017;-77
2023/07/27 04:12:58;;;;;;;20.17;10.68;;;13.50;99.90;;;;;;6159604;23;20013;-77
2023/07/27 04:15:24;;;;;;;26.52;11.15;;;13.60;99.90;;;;;;6185779;23;20021;-77
2023/07/27 04:17:50;;;;;;;26.00;11.88;;;13.60;99.90;;;;;;6159298;23;20100;-77
2023/07/27 04:20:16;;;;;;;30.63;11.38;;;13.60;99.90;;;;;;6159482;23;20059;-76
2023/07/27 04:22:41;;;;;;;25.98;12.90;;;13.70;99.90;;;;;;6159521;23;20044;-77
2023/07/27 04:25:08;;;;;;;26.30;12.57;;;13.70;99.90;;;;;;6159518;23;20017;-77
2023/07/27 04:27:33;;;;;;;28.30;12.98;;;13.60;99.90;;;;;;6186611;23;20039;-77
2023/07/27 04:30:02;;;;;;;28.15;12.80;;;13.70;99.90;;;;;;6161798;23;20476;-77
2023/07/27 04:32:28;;;;;;;27.75;12.93;;;13.70;99.90;;;;;;6161407;23;20025;-77
2023/07/27 04:34:53;;;;;;;28.08;14.35;;;13.70;99.90;;;;;;6187757;23;20084;-76
2023/07/27 04:37:20;;;;;;;31.63;13.52;;;13.70;99.90;;;;;;6161421;23;20013;-77
2023/07/27 04:39:46;;;;;;;27.30;12.73;;;13.70;99.90;;;;;;6161277;23;20021;-77
2023/07/27 04:42:12;;;;;;;28.40;13.95;;;13.70;99.90;;;;;;6187759;23;20025;-76
2023/07/27 04:44:38;;;;;;;31.20;13.68;;;13.70;99.90;;;;;;6161447;23;20021;-76
2023/07/27 04:47:03;;;;;;;31.85;14.05;;;13.70;99.90;;;;;;6161352;23;20096;-77
2023/07/27 04:49:29;;;;;;;34.88;14.40;;;13.70;99.90;;;;;;6161327;23;20040;-76
2023/07/27 04:51:57;;;;;;;28.50;12.75;;;13.70;99.90;;;;;;6161379;23;20103;-77
2023/07/27 04:54:23;;;;;;;29.83;14.05;;;13.70;99.90;;;;;;6187942;23;20449;-77
2023/07/27 04:56:49;;;;;;;26.65;13.30;;;13.70;99.90;;;;;;6161144;23;20029;-77
2023/07/27 04:59:14;;;;;;;33.45;14.32;;;13.60;99.90;;;;;;6161074;23;20017;-77
2023/07/27 05:01:42;;;;;;;33.33;14.10;;;13.60;99.90;;;;;;6161067;23;20454;-77
2023/07/27 05:04:08;;;;;;;32.40;13.98;;;13.60;99.90;;;;;;6161278;23;20437;-76
2023/07/27 05:06:34;;;;;;;31.08;13.07;;;13.60;99.90;;;;;;6187603;23;20017;-76
2023/07/27 05:09:00;;;;;;;35.47;15.93;;;13.60;99.90;;;;;;6187765;23;20017;-76
2023/07/27 05:11:32;;;;;;;28.40;13.82;;;13.60;99.90;;;;;;6161070;23;20405;-76
2023/07/27 05:13:58;;;;;;;32.10;14.63;;;13.70;99.90;;;;;;6161172;23;20031;-76
2023/07/27 05:16:23;;;;;;;36.30;14.70;;;13.70;99.90;;;;;;6161278;23;20017;-76
2023/07/27 05:18:49;;;;;;;31.00;13.82;;;13.70;99.90;;;;;;6160996;23;20024;-76
2023/07/27 05:21:15;;;;;;;29.05;14.43;;;13.70;99.90;;;;;;6161175;23;20013;-76
2023/07/27 05:23:40;;;;;;;32.28;15.13;;;13.60;99.90;;;;;;6161153;23;20036;-77
2023/07/27 05:26:09;;;;;;;31.60;15.43;;;13.50;99.90;;;;;;6187730;23;20076;-76
2023/07/27 05:28:37;;;;;;;30.98;13.90;;;13.50;99.90;;;;;;6161015;23;20017;-76
2023/07/27 05:31:03;;;;;;;30.10;13.65;;;13.50;99.90;;;;;;6161050;23;20040;-76
2023/07/27 05:33:29;;;;;;;30.80;14.50;;;13.50;99.90;;;;;;6187272;23;20361;-76
2023/07/27 05:35:54;;;;;;;29.80;13.63;;;13.60;99.90;;;;;;6187576;23;20008;-76
2023/07/27 05:38:23;;;;;;;29.27;14.85;;;13.60;99.90;;;;;;6160746;23;20017;-76
2023/07/27 05:40:48;;;;;;;32.10;15.77;;;13.70;99.90;;;;;;6186685;23;20021;-76
2023/07/27 05:43:14;;;;;;;34.00;15.23;;;13.70;99.90;;;;;;6160785;23;20083;-76
2023/07/27 05:45:39;;;;;;;33.92;15.80;;;13.70;99.90;;;;;;6160848;23;20048;-76
2023/07/27 05:48:06;;;;;;;33.47;14.88;;;13.70;99.90;;;;;;6187500;23;20088;-76
2023/07/27 05:50:32;;;;;;;32.08;15.20;;;13.80;99.90;;;;;;6187162;23;20020;-76
2023/07/27 05:52:58;;;;;;;33.75;15.73;;;13.80;99.90;;;;;;6187423;23;20020;-76
2023/07/27 05:55:23;;;;;;;32.50;14.82;;;13.70;99.90;;;;;;6187330;23;20017;-76
2023/07/27 05:57:49;;;;;;;32.80;15.93;;;13.80;99.90;;;;;;6160547;23;20013;-75
2023/07/27 06:00:15;;;;;;;35.72;15.48;;;13.80;99.90;;;;;;6160627;23;20032;-76
2023/07/27 06:02:41;;;;;;;34.42;14.73;;;13.70;99.90;;;;;;6187067;23;20437;-75
2023/07/27 06:05:07;;;;;;;33.30;14.38;;;13.80;99.90;;;;;;6160688;23;20024;-76
2023/07/27 06:07:33;;;;;;;31.15;14.88;;;13.80;99.90;;;;;;6160586;23;20450;-76
2023/07/27 06:09:58;;;;;;;37.05;16.23;;;13.80;99.90;;;;;;6160653;23;20456;-76
2023/07/27 06:12:24;;;;;;;31.02;14.82;;;13.80;99.90;;;;;;6160661;23;20092;-76
2023/07/27 06:14:51;;;;;;;33.63;15.77;;;13.80;99.90;;;;;;6186960;23;20044;-76
2023/07/27 06:17:17;;;;;;;34.00;15.32;;;13.90;99.90;;;;;;6160367;23;20333;-81
2023/07/27 06:19:42;;;;;;;33.70;16.13;;;13.90;99.90;;;;;;6159169;23;20099;-75
2023/07/27 06:22:08;;;;;;;34.25;16.00;;;13.90;99.90;;;;;;6160248;23;20017;-75
2023/07/27 06:24:34;;;;;;;32.58;16.70;;;13.90;99.90;;;;;;6159970;23;20021;-74
2023/07/27 06:27:00;;;;;;;31.98;16.48;;;13.90;99.90;;;;;;6160129;23;20020;-75
2023/07/27 06:29:25;;;;;;;35.22;16.08;;;13.90;99.90;;;;;;6160573;23;20013;-75
2023/07/27 06:31:51;;;;;;;32.70;16.00;;;13.90;99.90;;;;;;6160195;23;20393;-75
2023/07/27 06:34:17;;;;;;;29.05;16.02;;;13.90;99.90;;;;;;6160176;23;20017;-75
2023/07/27 06:36:42;;;;;;;32.47;15.30;;;13.90;99.90;;;;;;6160225;23;20441;-75
2023/07/27 06:39:12;;;;;;;38.20;16.00;;;13.90;99.90;;;;;;6159791;23;20100;-75
2023/07/27 06:41:40;;;;;;;31.35;14.38;;;14.00;99.90;;;;;;6159550;23;20025;-75
2023/07/27 06:44:08;;;;;;;28.42;12.90;;;14.00;99.90;;;;;;6160048;23;20024;-75
2023/07/27 06:46:34;;;;;;;29.10;13.88;;;14.00;99.90;;;;;;6159961;23;20469;-75
2023/07/27 06:49:00;;;;;;;25.33;12.40;;;14.00;99.90;;;;;;6159881;23;20021;-75
2023/07/27 06:51:26;;;;;;;28.77;13.73;;;14.10;99.90;;;;;;6159432;23;20024;-75
2023/07/27 06:53:51;;;;;;;24.10;11.70;;;14.10;99.90;;;;;;6159857;23;20100;-75
2023/07/27 06:56:17;;;;;;;26.48;12.25;;;14.10;99.90;;;;;;6159975;23;20052;-75
2023/07/27 06:58:43;;;;;;;26.30;11.07;;;14.10;99.90;;;;;;6159886;23;20021;-76
2023/07/27 07:01:10;;;;;;;23.40;11.68;;;14.10;99.90;;;;;;6186475;23;20017;-75
2023/07/27 07:03:36;;;;;;;23.30;13.50;;;14.20;99.90;;;;;;6159752;23;20024;-75
2023/07/27 07:06:02;;;;;;;23.15;11.95;;;14.20;99.90;;;;;;6159860;23;20096;-75
2023/07/27 07:08:28;;;;;;;23.45;11.75;;;14.30;99.90;;;;;;6186352;23;20114;-76
2023/07/27 07:10:53;;;;;;;22.77;11.95;;;14.30;99.90;;;;;;6186369;23;20015;-76
2023/07/27 07:13:23;;;;;;;20.73;10.55;;;14.40;99.90;;;;;;6160190;23;20381;-75
2023/07/27 07:15:52;;;;;;;24.17;11.68;;;14.50;99.90;;;;;;6185564;23;20051;-75
2023/07/27 07:18:17;;;;;;;22.85;11.05;;;14.60;99.90;;;;;;6158494;23;20354;-76
2023/07/27 07:20:43;;;;;;;21.88;10.32;;;14.60;99.90;;;;;;6158938;23;20013;-78
2023/07/27 07:23:09;;;;;;;20.23;10.15;;;14.80;99.90;;;;;;6185833;23;20086;-76
2023/07/27 07:25:34;;;;;;;19.08;10.23;;;14.80;99.90;;;;;;6159575;23;20017;-76
2023/07/27 07:28:00;;;;;;;18.20;10.30;;;14.90;99.90;;;;;;6159165;23;20017;-74
2023/07/27 07:30:25;;;;;;;19.88;10.02;;;15.00;99.90;;;;;;6159285;23;20377;-77
2023/07/27 07:32:51;;;;;;;22.25;10.70;;;15.10;99.90;;;;;;6158323;23;20500;-75
2023/07/27 07:35:18;;;;;;;17.70;9.80;;;15.10;99.90;;;;;;6159089;23;20025;-76
2023/07/27 07:37:47;;;;;;;16.80;9.20;;;15.10;99.90;;;;;;6185669;23;20067;-76
2023/07/27 07:40:16;;;;;;;16.20;9.35;;;15.20;99.90;;;;;;6185223;23;20096;-76
2023/07/27 07:42:42;;;;;;;18.60;9.57;;;15.20;99.90;;;;;;6158776;23;20460;-76
2023/07/27 07:45:08;;;;;;;15.30;8.50;;;15.20;99.90;;;;;;6159508;23;20017;-75
2023/07/27 07:47:37;;;;;;;14.30;8.18;;;15.20;99.90;;;;;;6159070;23;20060;-76
2023/07/27 07:50:06;;;;;;;14.85;8.65;;;15.20;99.90;;;;;;6159506;23;20031;-75
2023/07/27 07:52:32;;;;;;;15.00;8.48;;;15.20;99.90;;;;;;6159028;23;20020;-76
2023/07/27 07:55:01;;;;;;;12.80;8.02;;;15.30;99.90;;;;;;6159230;23;20017;-77
2023/07/27 07:57:26;;;;;;;17.58;8.20;;;15.30;99.90;;;;;;6158962;23;20536;-75
2023/07/27 07:59:52;;;;;;;12.57;7.70;;;15.40;99.90;;;;;;6186028;23;20049;-75
2023/07/27 08:02:18;;;;;;;12.68;7.88;;;15.30;99.90;;;;;;6158796;23;20066;-76
2023/07/27 08:04:43;;;;;;;12.90;7.25;;;15.40;99.90;;;;;;6159303;23;20029;-76
2023/07/27 08:07:09;;;;;;;12.05;7.55;;;15.40;99.90;;;;;;6158959;23;20445;-76
2023/07/27 08:09:34;;;;;;;11.60;7.32;;;15.40;99.90;;;;;;6185932;23;20040;-75
2023/07/27 08:12:00;;;;;;;12.52;7.53;;;15.30;99.90;;;;;;6159349;23;20345;-76
2023/07/27 08:14:26;;;;;;;13.90;7.45;;;15.40;99.90;;;;;;6159091;23;20051;-76
2023/07/27 08:16:51;;;;;;;12.85;7.47;;;15.40;99.90;;;;;;6159271;23;20112;-76
2023/07/27 08:19:17;;;;;;;12.02;7.20;;;15.40;99.90;;;;;;6185680;23;20044;-75
2023/07/27 08:21:42;;;;;;;10.68;6.88;;;15.40;99.90;;;;;;6158834;23;20013;-76
2023/07/27 08:24:08;;;;;;;11.15;6.20;;;15.40;99.90;;;;;;6185604;23;20020;-75
2023/07/27 08:26:34;;;;;;;9.80;6.20;;;15.40;99.90;;;;;;6185966;23;20315;-75
2023/07/27 08:29:00;;;;;;;8.40;5.97;;;15.50;99.90;;;;;;6185524;23;20453;-75
2023/07/27 08:31:27;;;;;;;9.63;6.07;;;15.50;99.90;;;;;;6158751;23;20074;-77
2023/07/27 08:33:53;;;;;;;10.13;6.13;;;15.50;99.90;;;;;;6158681;23;20044;-76
2023/07/27 08:36:19;;;;;;;8.75;5.68;;;15.50;99.90;;;;;;6159282;23;20032;-75
2023/07/27 08:38:45;;;;;;;10.43;6.20;;;15.60;99.90;;;;;;6185767;23;20017;-76
2023/07/27 08:41:14;;;;;;;9.15;6.30;;;15.60;99.90;;;;;;6185414;23;20020;-75
2023/07/27 08:43:40;;;;;;;9.73;5.90;;;15.70;99.90;;;;;;6159204;23;20032;-79
2023/07/27 08:46:07;;;;;;;8.73;5.50;;;15.70;99.90;;;;;;6159080;23;20096;-75
2023/07/27 08:48:34;;;;;;;10.68;6.35;;;15.80;99.90;;;;;;6159179;23;20441;-75
2023/07/27 08:51:00;;;;;;;10.48;5.90;;;15.90;99.90;;;;;;6159157;23;20060;-76
2023/07/27 08:53:26;;;;;;;10.52;6.22;;;15.90;99.90;;;;;;6185480;23;20021;-76
2023/07/27 08:55:52;;;;;;;9.80;5.80;;;15.90;99.90;;;;;;6185491;23;20028;-75
2023/07/27 08:58:18;;;;;;;10.52;5.70;;;16.00;99.90;;;;;;6159094;23;20025;-76
2023/07/27 09:00:44;;;;;;;9.40;6.10;;;16.00;99.90;;;;;;6159031;23;20017;-75
2023/07/27 09:03:09;;;;;;;9.52;5.75;;;16.00;99.90;;;;;;6159140;23;20020;-75
2023/07/27 09:05:55;;;;;;;7.75;4.63;;;16.00;99.90;;;;;;6159090;23;20445;-75
2023/07/27 09:08:21;;;;;;;9.82;5.22;;;16.00;99.90;;;;;;6185892;23;20013;-75
2023/07/27 09:10:49;;;;;;;6.22;4.47;;;16.10;99.90;;;;;;6158941;23;20092;-76
2023/07/27 09:13:14;;;;;;;6.55;4.70;;;16.10;99.90;;;;;;6157488;23;20073;-75
2023/07/27 09:15:45;;;;;;;9.00;4.60;;;16.10;99.90;;;;;;6160208;23;20090;-75
2023/07/27 09:18:12;;;;;;;5.10;3.20;;;16.20;99.90;;;;;;6187294;23;20021;-75
2023/07/27 09:20:42;;;;;;;5.57;3.35;;;16.10;99.90;;;;;;6187457;23;20096;-75
2023/07/27 09:23:18;;;;;;;5.40;3.20;;;16.30;99.90;;;;;;6160872;23;20079;-76
2023/07/27 09:25:55;;;;;;;5.82;3.47;;;16.30;99.90;;;;;;6160658;23;20348;-75
2023/07/27 09:28:24;;;;;;;6.07;3.67;;;16.40;99.90;;;;;;6160832;23;20021;-76
2023/07/27 09:30:49;;;;;;;5.70;3.50;;;16.30;99.90;;;;;;6160643;23;20025;-75
2023/07/27 09:33:15;;;;;;;3.95;2.72;;;16.30;99.90;;;;;;6160724;23;20390;-75
2023/07/27 09:35:40;;;;;;;4.55;2.90;;;16.30;99.90;;;;;;6160682;23;20023;-75
2023/07/27 09:38:06;;;;;;;4.18;2.70;;;16.20;99.90;;;;;;6160732;23;20021;-75
2023/07/27 09:40:33;;;;;;;4.22;2.70;;;16.40;99.90;;;;;;6160399;23;20023;-75
2023/07/27 09:43:06;;;;;;;6.75;2.92;;;16.40;99.90;;;;;;6160678;23;20025;-76
2023/07/27 09:45:36;;;;;;;3.97;2.40;;;16.40;99.90;;;;;;6160681;23;20017;-75
2023/07/27 09:48:02;;;;;;;6.15;2.55;;;16.40;99.90;;;;;;6160556;23;20505;-76
2023/07/27 09:50:29;;;;;;;3.47;2.10;;;16.40;99.90;;;;;;6160262;23;20091;-76
2023/07/27 09:52:58;;;;;;;4.55;2.20;;;16.40;99.90;;;;;;6160256;23;20131;-76
2023/07/27 09:55:25;;;;;;;4.00;1.98;;;16.30;99.90;;;;;;6160439;23;20024;-76
2023/07/27 09:57:51;;;;;;;3.90;2.20;;;16.40;99.90;;;;;;6160335;23;20021;-76
2023/07/27 10:00:20;;;;;;;4.15;2.45;;;16.50;99.90;;;;;;6160545;23;20021;-76
2023/07/27 10:02:46;;;;;;;4.05;2.45;;;16.50;99.90;;;;;;6187006;23;20033;-76
2023/07/27 10:05:11;;;;;;;3.90;2.53;;;16.50;99.90;;;;;;6160466;23;20017;-75
2023/07/27 10:07:37;;;;;;;4.47;3.05;;;16.60;99.90;;;;;;6160343;23;20084;-75
2023/07/27 10:10:39;;;;;;;3.42;2.38;;;16.50;99.90;;;;;;6160632;23;20072;-76
2023/07/27 10:13:30;;;;;;;3.67;2.60;;;16.60;99.90;;;;;;6186531;23;20009;-75
2023/07/27 10:15:56;;;;;;;4.38;2.40;;;16.60;99.90;;;;;;6160379;23;20053;-75
2023/07/27 10:18:29;;;;;;;3.85;2.25;;;16.60;99.90;;;;;;6160175;23;20013;-78
2023/07/27 10:21:29;;;;;;;3.40;2.20;;;16.60;99.90;;;;;;6160333;23;20092;-75
2023/07/27 10:24:05;;;;;;;2.60;1.67;;;16.60;99.90;;;;;;6160344;23;20346;-77
2023/07/27 10:26:40;;;;;;;5.05;2.15;;;16.50;99.90;;;;;;6160131;23;20333;-76
2023/07/27 10:29:19;;;;;;;3.17;2.00;;;16.60;99.90;;;;;;6160244;23;20349;-76
2023/07/27 10:31:46;;;;;;;2.53;1.70;;;16.80;99.90;;;;;;6160142;23;20349;-76
2023/07/27 10:34:11;;;;;;;3.60;2.10;;;16.80;99.90;;;;;;6160534;23;20021;-76
2023/07/27 10:36:57;;;;;;;2.47;1.45;;;16.90;99.90;;;;;;6160185;23;20453;-77
2023/07/27 10:39:29;;;;;;;2.00;1.17;;;16.90;99.90;;;;;;6159896;23;20021;-76
2023/07/27 10:42:02;;;;;;;1.88;1.20;;;17.00;99.90;;;;;;6130547;23;20029;-75
2023/07/27 10:44:41;;;;;;;1.35;0.93;;;17.00;99.90;;;;;;6130570;23;20100;-75
2023/07/27 10:47:37;;;;;;;2.15;1.30;;;16.90;99.90;;;;;;6130524;23;20346;-76
2023/07/27 10:50:03;;;;;;;3.30;1.10;;;16.80;99.90;;;;;;6129651;23;20029;-76
2023/07/27 10:52:37;;;;;;;2.20;0.93;;;16.80;99.90;;;;;;6129605;23;20396;-76
2023/07/27 10:55:05;;;;;;;4.10;0.98;;;16.70;99.90;;;;;;6156258;23;20018;-75
2023/07/27 10:57:32;;;;;;;1.80;0.95;;;16.70;99.90;;;;;;6156546;23;20064;-75
2023/07/27 10:59:58;;;;;;;2.53;0.85;;;16.60;99.90;;;;;;6130232;23;20021;-75
2023/07/27 11:02:29;;;;;;;2.20;0.82;;;16.60;99.90;;;;;;6156331;23;20024;-75
2023/07/27 11:04:57;;;;;;;3.75;0.77;;;16.60;99.90;;;;;;6129627;23;20017;-75
2023/07/27 11:07:34;;;;;;;3.92;0.88;;;16.60;99.90;;;;;;6129209;23;20502;-76
2023/07/27 11:10:06;;;;;;;1.67;1.00;;;16.60;99.90;;;;;;6129776;23;20029;-75
2023/07/27 11:12:44;;;;;;;1.52;1.00;;;16.60;99.90;;;;;;6129862;23;20084;-75
2023/07/27 11:15:24;;;;;;;2.03;1.00;;;16.60;99.90;;;;;;6130232;23;20021;-75
2023/07/27 11:17:54;;;;;;;1.90;1.10;;;16.60;99.90;;;;;;6156221;23;20021;-75
2023/07/27 11:20:22;;;;;;;2.28;1.35;;;16.40;99.90;;;;;;6128893;23;20025;-75
2023/07/27 11:22:48;;;;;;;2.47;1.35;;;16.50;99.90;;;;;;6129734;23;20013;-75
2023/07/27 11:25:14;;;;;;;2.33;1.55;;;16.50;99.90;;;;;;6129696;23;20140;-75
2023/07/27 11:27:40;;;;;;;2.58;1.45;;;16.50;99.90;;;;;;6129667;23;20060;-75
2023/07/27 11:30:10;;;;;;;3.58;1.85;;;16.50;99.90;;;;;;6130091;23;20024;-76
2023/07/27 11:32:39;;;;;;;4.13;1.88;;;16.50;99.90;;;;;;6129481;23;20017;-75
2023/07/27 11:35:05;;;;;;;2.60;1.90;;;16.60;99.90;;;;;;6155650;23;20064;-76
2023/07/27 11:37:31;;;;;;;3.05;1.67;;;16.60;99.90;;;;;;6128860;23;20096;-76
2023/07/27 11:39:57;;;;;;;3.53;1.75;;;16.70;99.90;;;;;;6135890;23;20512;-76
2023/07/27 11:42:28;;;;;;;2.90;2.10;;;16.70;99.90;;;;;;6158856;23;20615;-76
2023/07/27 11:44:54;;;;;;;4.82;2.03;;;16.80;99.90;;;;;;6159534;23;20019;-75
2023/07/27 11:47:25;;;;;;;2.80;2.10;;;16.90;99.90;;;;;;6159376;23;20461;-75
2023/07/27 11:49:51;;;;;;;3.33;2.00;;;16.90;99.90;;;;;;6159531;23;20032;-77
2023/07/27 11:52:18;;;;;;;3.92;2.03;;;16.90;99.90;;;;;;6159449;23;20064;-78
2023/07/27 11:54:44;;;;;;;3.95;2.20;;;17.00;99.90;;;;;;6185749;23;20017;-78
2023/07/27 11:57:15;;;;;;;3.10;2.17;;;17.00;99.90;;;;;;6159411;23;20453;-78
2023/07/27 11:59:40;;;;;;;3.15;2.03;;;17.10;99.90;;;;;;6159444;23;20029;-77
2023/07/27 12:02:06;;;;;;;6.38;2.22;;;17.10;99.90;;;;;;6159354;23;20024;-76
2023/07/27 12:04:32;;;;;;;2.60;1.85;;;17.10;99.90;;;;;;6159450;23;20504;-75
2023/07/27 12:06:58;;;;;;;3.15;1.73;;;17.00;99.90;;;;;;6159453;23;20096;-75
2023/07/27 12:09:23;;;;;;;3.20;1.92;;;17.10;99.90;;;;;;6159423;23;20024;-79
2023/07/27 12:11:49;;;;;;;3.08;2.00;;;17.20;99.90;;;;;;6159364;23;20141;-76
2023/07/27 12:14:20;;;;;;;2.95;1.77;;;17.20;99.90;;;;;;6159411;23;20013;-75
2023/07/27 12:16:46;;;;;;;2.80;2.00;;;17.30;99.90;;;;;;6159182;23;20021;-75
2023/07/27 12:19:12;;;;;;;3.50;1.90;;;17.40;99.90;;;;;;6159130;23;20024;-75
2023/07/27 12:21:38;;;;;;;2.40;1.92;;;17.30;99.90;;;;;;6159315;23;20021;-77
2023/07/27 12:24:11;;;;;;;4.15;1.80;;;17.30;99.90;;;;;;6159352;23;20051;-77
2023/07/27 12:26:37;;;;;;;2.15;1.58;;;17.30;99.90;;;;;;6183784;23;20025;-78
2023/07/27 12:29:04;;;;;;;4.20;1.65;;;17.40;99.90;;;;;;6159245;23;20052;-79
2023/07/27 12:31:30;;;;;;;2.33;1.58;;;17.50;99.90;;;;;;6159220;23;20025;-78
2023/07/27 12:33:56;;;;;;;2.13;1.60;;;17.60;99.90;;;;;;6159239;23;20013;-79
2023/07/27 12:36:22;;;;;;;2.20;1.70;;;17.60;99.90;;;;;;6160035;23;20123;-77
2023/07/27 12:38:47;;;;;;;3.67;1.77;;;17.70;99.90;;;;;;6185763;23;20013;-78